Weather observations for the past three days for
Galliano, South Lafourche Airport
Metric (Imperial)
Date Time (cdt) Wind (kph) Vis. (km) Weather Sky Cond. Temperature (ºC) Relative Humidity Wind Chill (°C) Heat Index (°C) Pressure Precipitation (cm)
Air Dwpt 6 hour altimeter (cm) sea level (mb) 1 hr 3 hr 6 hr
Max. Min.
07 23:15 Calm 16.09 Overcast OVC011 23.4 21.5 89% 76.12 0.0
07 22:55 Calm 16.09 Overcast OVC013 23.3 21.5 90% 76.15 0.0
07 22:35 Calm 16.09 Overcast BKN010 OVC015 23.4 21.4 89% 76.15 0.0
07 22:15 Calm 16.09 Overcast SCT014 OVC023 23.2 21.3 89% 76.15 0.0
07 21:55 NE 6 16.09 Overcast OVC023 23.1 21.1 89% 76.12 0.0
07 21:35 NE 6 16.09 Overcast OVC023 23 21 89% 76.12 0.0
07 21:15 NE 6 16.09 Overcast OVC023 23 21 89% 76.1 0.0
07 20:55 NE 7 16.09 Overcast SCT010 OVC021 23 21 89% 76.07 0.0
07 20:35 NE 6 16.09 Overcast OVC021 23 21 89% 76.07 0.0
07 20:15 N 7 16.09 Overcast OVC019 22.8 21 90% 76.07 0.0
07 19:55 N 9 16.09 Overcast BKN007 OVC019 22.7 21.1 91% 76.05 0.0
07 19:35 N 7 8.05 Fog/Mist BKN005 OVC019 22.7 21.2 91% 76.05 0.0
07 19:15 N 6 6.44 Fog/Mist BKN005 BKN011 OVC019 22.6 21.1 91% 76.02 0.0
07 18:55 NE 7 4.83 Light Drizzle BKN005 OVC009 22.6 21.1 24.8 22.6 91% 76.02 0.0
07 18:35 N 6 4.83 Drizzle SCT007 OVC015 22.6 21 91% 76.05 0.0
07 18:15 Calm 8.05 Rain SCT009 OVC015 22.6 20.8 90% 76.05 0.0
07 17:55 N 9 16.09 Overcast OVC009 23 20.4 85% 76.05 0.0
07 17:35 N 7 16.09 Overcast OVC011 23.1 20.3 84% 76.02 0.0
07 17:15 N 11 16.09 Overcast OVC011 23.5 20.4 83% 76.02 0.0
07 16:55 N 13 16.09 Overcast OVC009 23.2 20.3 84% 76.02 0.0
07 16:35 N 17 16.09 Overcast OVC009 23 20.3 85% 76.02 0.0
07 16:15 N 13 16.09 Overcast OVC009 23.5 20.5 83% 76.02 0.0
07 15:55 N 11 16.09 Overcast OVC009 23.3 20.5 84% 76.02 0.0
07 15:35 N 13 16.09 Overcast OVC009 23.4 20.5 84% 76.02 0.0
07 15:15 N 11 16.09 Overcast OVC007 23.6 20.9 85% 76.02 0.0
07 14:55 N 9 16.09 Overcast BKN007 OVC014 23.9 21.1 84% 24 76.02 0.0
07 14:35 N 9 11.27 Overcast BKN007 OVC014 24 21.3 85% 24 76.02 0.0
07 14:15 N 9 8.05 Fog/Mist OVC007 23.5 21.2 87% 76.05 0.0
07 13:55 N 11 6.44 Fog/Mist OVC007 23.4 21.2 88% 76.07 0.0
07 13:35 N 11 8.05 Fog/Mist OVC007 24 21.4 85% 24 76.07 0.0
07 13:15 N 13 11.27 Overcast OVC009 24.3 21.5 84% 25 76.07 0.0
07 12:55 N 9 16.09 Overcast OVC009 24.5 21.6 27.6 24 84% 25 76.07 0.0
07 12:35 N 11 11.27 Overcast BKN007 OVC014 24.2 21.7 86% 24 76.1 0.0
07 12:15 N 13 16.09 Overcast SCT007 OVC014 24.2 22 88% 24 76.1 0.0
07 11:55 N 11 16.09 Overcast SCT006 OVC011 26.8 22.9 79% 29 76.1 0.0
07 11:35 SW 15 16.09 Overcast OVC011 26.8 23.4 82% 29 76.1 0.0
07 11:15 SW 13 16.09 Overcast OVC011 26.9 23.5 82% 30 76.1 0.0
07 10:55 SW 19 16.09 Overcast OVC011 27.6 23.5 78% 31 76.1 0.0
07 10:35 SW 19 16.09 Overcast BKN011 OVC042 27.3 23.6 80% 30 76.1 0.0
07 10:15 SW 17 16.09 Overcast BKN009 BKN016 OVC042 27.1 23.5 81% 30 76.1 0.0
07 09:55 SW 15 16.09 Overcast OVC009 26.7 23.5 83% 29 76.1 0.0
07 09:35 SW 15 16.09 Overcast OVC011 26.5 23.3 83% 29 76.1 0.0
07 09:15 SW 17 16.09 Overcast BKN011 OVC014 26.5 23.3 83% 29 76.1 0.0
07 08:55 SW 15 16.09 NULL NULL 26.5 23.2 82% 29 76.1 0.0
07 08:35 SW 15 16.09 NULL NULL 26.1 23 83% 28 76.1 0.0
07 08:15 SW 17 16.09 NULL NULL 26.5 23.3 83% 29 76.07 0.0
07 07:55 SW 19 16.09 NULL NULL 25.8 23 85% 27 76.05 0.0
07 07:35 SW 15 16.09 NULL NULL 25.6 23 86% 27 76.07 0.0
07 07:15 SW 13 16.09 NULL NULL 25.5 23 86% 27 76.05 0.0
07 06:55 SW 13 16.09 NULL NULL 25.5 23 25.6 25.3 86% 27 76.02 0.0
07 06:35 SW 13 16.09 NULL NULL 25.5 22.8 85% 27 76 0.0
07 06:15 SW 15 16.09 NULL NULL 25.5 22.8 85% 27 75.97 0.0
07 05:55 SW 13 16.09 NULL NULL 25.3 22.8 86% 26 75.97 0.0
07 05:35 SW 15 16.09 NULL NULL 25.3 22.7 86% 26 75.95 0.0
07 05:15 SW 19 16.09 NULL NULL 25.4 22.8 86% 27 75.95 0.0
07 04:55 SW 19 16.09 NULL NULL 25.4 22.8 86% 27 75.92 0.0
07 04:35 SW 19 16.09 NULL NULL 25.5 23 86% 27 75.9 0.0
07 04:15 SW 24 16.09 NULL NULL 25.4 22.9 86% 27 75.9 0.0
07 03:55 SW 17 G 31 16.09 NULL NULL 25.5 23 86% 27 75.9 0.0
07 03:35 S 24 G 31 16.09 NULL NULL 25.5 23 86% 27 75.9 0.0
07 03:15 SW 19 16.09 NULL NULL 25.5 23 86% 27 75.92 0.0
07 02:55 S 20 16.09 NULL NULL 25.5 23.1 87% 27 75.92 0.0
07 02:35 SW 17 16.09 NULL NULL 25.5 23.1 87% 27 75.95 0.0
07 02:15 S 22 G 28 16.09 NULL NULL 25.5 23.1 87% 27 75.95 0.0
07 01:55 S 19 16.09 NULL NULL 25.5 23.1 87% 27 75.95 0.0
07 01:35 S 19 16.09 NULL NULL 25.5 23.2 87% 27 75.95 0.0
07 01:15 S 19 16.09 NULL NULL 25.5 23.2 87% 27 75.95 0.0
07 00:55 S 24 G 31 16.09 NULL NULL 25.5 23.1 26.7 25.5 87% 27 75.95 0.0
07 00:35 S 24 16.09 NULL NULL 25.6 23.3 87% 27 75.95 0.0
07 00:15 S 19 16.09 NULL NULL 25.6 23.3 87% 27 75.95 0.0
06 23:55 S 20 G 26 16.09 NULL NULL 25.5 23.3 88% 27 75.95 0.0
06 23:35 S 19 G 30 16.09 NULL NULL 25.6 23.3 87% 27 75.95 0.0
06 23:15 S 17 G 31 16.09 NULL NULL 25.7 23.4 87% 27 75.97 0.0
06 22:55 S 19 G 28 16.09 NULL NULL 26 23.5 86% 28 75.97 0.0
06 22:15 S 19 16.09 NULL NULL 26 23.3 85% 28 75.97 0.0
06 21:55 S 19 G 26 16.09 NULL NULL 26 23.3 85% 28 75.97 0.0
06 21:35 S 17 G 26 16.09 NULL NULL 26 23.3 85% 28 75.95 0.0
06 21:15 S 17 G 28 16.09 NULL NULL 26 23.4 86% 28 75.95 0.0
06 20:55 S 15 G 28 16.09 NULL NULL 26.1 23.3 85% 28 75.92 0.0
06 20:35 S 20 16.09 NULL NULL 26.2 23.3 84% 28 75.92 0.0
06 20:15 S 20 G 31 16.09 NULL NULL 26.2 23.2 84% 28 75.9 0.0
06 19:55 S 20 G 28 16.09 NULL NULL 26.3 23.2 83% 28 75.9 0.0
06 19:35 S 20 16.09 NULL NULL 26.5 23.1 82% 29 75.87 0.0
06 19:15 S 24 G 30 16.09 NULL NULL 26.6 23.2 82% 29 75.87 0.0
06 18:55 S 22 G 31 16.09 NULL NULL 26.7 23 29.6 26.7 80% 29 75.87 0.0
06 18:35 S 22 16.09 NULL NULL 26.9 23.1 80% 29 75.87 0.0
06 17:55 S 17 G 26 16.09 NULL NULL 27.3 23.3 79% 30 75.9 0.0
06 17:35 S 19 16.09 NULL NULL 27.5 23.2 77% 31 75.9 0.0
06 17:15 S 20 G 28 16.09 NULL NULL 28.1 23.3 75% 32 75.9 0.0
06 16:35 S 13 G 30 16.09 NULL NULL 28.2 23.7 77% 32 75.9 0.0
06 16:15 S 20 16.09 NULL NULL 28.1 23 74% 31 75.92 0.0
06 15:55 S 20 G 28 16.09 NULL NULL 28.3 23.1 73% 32 75.95 0.0
06 15:35 S 20 G 31 16.09 NULL NULL 28.5 23 72% 32 75.95 0.0
06 15:15 S 22 16.09 NULL NULL 28.5 23 72% 32 75.97 0.0
06 14:55 S 22 G 28 16.09 NULL NULL 29 23.3 71% 33 76 0.0
06 14:35 S 22 G 31 16.09 NULL NULL 29.1 23.5 72% 33 76 0.0
06 14:15 S 28 G 33 16.09 NULL NULL 28.7 23.2 72% 32 76.05 0.0
06 13:55 S 26 G 35 16.09 NULL NULL 28.9 23 71% 33 76.05 0.0
06 13:35 S 20 16.09 NULL NULL 29.2 23.5 71% 33 76.05 0.0
06 13:15 S 22 G 33 16.09 NULL NULL 29.5 23.1 69% 34 76.07 0.0
06 12:55 S 24 G 31 16.09 NULL NULL 29.6 23.4 29.7 24.5 69% 34 76.07 0.0
06 12:35 S 22 G 30 16.09 NULL NULL 29 23.2 71% 33 76.1 0.0
06 12:15 S 22 G 30 16.09 NULL NULL 28.5 23.1 73% 32 76.07 0.0
06 11:55 S 22 G 30 16.09 NULL NULL 28.6 23.1 72% 32 76.07 0.0
06 11:35 S 22 16.09 NULL NULL 28.8 23.6 74% 33 76.07 0.0
06 11:15 S 20 G 31 16.09 NULL NULL 28.3 24 78% 32 76.05 0.0
06 10:55 S 24 G 31 16.09 NULL NULL 27.3 23.4 79% 30 76.07 0.0
06 10:35 S 22 16.09 NULL NULL 27.5 23.5 79% 31 76.07 0.0
06 10:15 S 24 G 33 16.09 NULL NULL 27.4 23.2 78% 30 76.05 0.0
06 09:55 S 17 G 26 16.09 NULL NULL 27.5 23.4 78% 31 76.05 0.0
06 09:35 S 17 16.09 NULL NULL 27.1 23.5 81% 30 76.02 0.0
06 09:15 S 13 16.09 NULL NULL 26.5 23.3 83% 29 76.02 0.0
06 08:55 SE 7 16.09 NULL NULL 26 23.1 84% 28 76.02 0.0
06 08:35 SE 7 16.09 NULL NULL 25.5 22.9 86% 27 76.02 0.0
06 08:15 SE 9 16.09 NULL NULL 25.1 22.7 87% 26 76.02 0.0
06 07:55 S 9 16.09 NULL NULL 25 22.7 87% 26 76.02 0.0
06 07:35 S 9 16.09 NULL NULL 24.6 22.5 88% 25 76 0.0
06 06:55 S 9 16.09 NULL NULL 24.5 22.3 24.5 23.2 88% 25 75.97 0.0
06 06:35 S 9 16.09 NULL NULL 24.3 22.2 88% 24 75.95 0.0
06 06:15 S 9 16.09 NULL NULL 24.3 22.2 88% 24 75.92 0.0
06 05:55 S 9 16.09 Overcast SCT013 SCT017 OVC026 24.2 22 88% 24 75.92 0.0
06 05:35 SE 9 16.09 Overcast SCT013 OVC017 24.2 22 88% 24 75.92 0.0
06 05:15 S 9 16.09 Overcast OVC013 24.3 22 87% 24 75.92 0.0
06 04:55 SE 7 16.09 Overcast OVC011 24.2 21.8 87% 24 75.92 0.0
06 04:35 S 9 16.09 Overcast OVC011 24.1 21.7 87% 24 75.9 0.0
06 04:15 S 9 16.09 Overcast OVC011 24.1 21.6 86% 24 75.92 0.0
06 03:55 S 9 16.09 Overcast OVC013 24.1 21.5 85% 24 75.92 0.0
06 03:35 S 9 16.09 Overcast OVC013 24 21.5 86% 24 75.9 0.0
06 03:15 S 13 16.09 Overcast OVC010 24 21.5 86% 24 75.9 0.0
06 02:55 S 13 16.09 Overcast OVC012 23.7 21.3 86% 75.9 0.0
06 02:35 S 11 16.09 Overcast BKN012 OVC026 23.6 21 85% 75.9 0.0
06 02:15 SE 11 16.09 Overcast SCT012 OVC026 23.5 21 86% 75.92 0.0
06 01:55 SE 9 16.09 Mostly Cloudy BKN014 23.5 20.6 84% 75.92 0.0
06 01:35 S 13 16.09 Partly Cloudy SCT014 SCT028 23.5 20.5 83% 75.92 0.0
06 01:15 SE 11 16.09 Fair CLR 23.2 20.2 83% 75.95 0.0
06 00:55 SE 15 16.09 Partly Cloudy SCT027 23.3 20.2 24.7 22.4 83% 75.95 0.0
06 00:35 SE 13 16.09 Partly Cloudy SCT013 SCT027 23.5 20.5 83% 75.95 0.0
06 00:15 SE 13 16.09 Overcast OVC013 23.5 20.5 83% 75.97 0.0
05 23:55 SE 11 16.09 Mostly Cloudy BKN013 23.5 20.5 83% 75.97 0.0
05 23:35 SE 9 16.09 Mostly Cloudy BKN013 23.5 20.5 83% 75.97 0.0
05 23:15 SE 15 16.09 Mostly Cloudy BKN013 23.5 20.4 83% 76 0.0
05 22:55 S 15 16.09 Overcast OVC013 23.5 20.3 82% 76 0.0
05 22:35 SE 11 16.09 Overcast OVC013 23.6 20.2 81% 76 0.0
05 22:15 SE 9 16.09 Mostly Cloudy BKN015 BKN019 23.5 20.2 82% 76 0.0
05 21:55 SE 9 16.09 Mostly Cloudy BKN015 BKN019 23.6 20.4 82% 75.97 0.0
05 21:35 SE 11 16.09 Mostly Cloudy BKN015 BKN019 23.5 20.2 82% 75.97 0.0
05 21:15 S 9 16.09 Partly Cloudy SCT017 23.1 19.8 82% 75.97 0.0
05 20:55 S 7 16.09 Partly Cloudy SCT017 23.1 19.6 81% 75.97 0.0
05 20:35 S 7 16.09 Partly Cloudy SCT016 22.8 19.8 83% 75.95 0.0
05 20:15 S 6 16.09 Partly Cloudy SCT016 22.4 19.5 84% 75.95 0.0
05 19:55 S 6 16.09 Fair CLR 22.7 19.5 82% 75.95 0.0
05 19:35 S 7 16.09 Fair CLR 23.2 19.5 80% 75.92 0.0
05 19:15 S 9 16.09 Fair CLR 24.2 19.5 75% 25 75.92 0.0
05 18:55 S 17 16.09 Fair CLR 24.7 19.7 27.3 24.5 74% 26 75.95 0.0
05 18:35 S 13 16.09 Partly Cloudy SCT035 24.8 19.6 73% 26 75.95 0.0
05 18:15 S 17 16.09 Overcast OVC035 25 19.7 73% 26 75.95 0.0
05 17:55 S 17 16.09 Overcast SCT019 OVC035 25 19.7 73% 26 75.95 0.0
05 17:35 S 20 16.09 Overcast SCT019 BKN025 OVC035 25 19.9 73% 26 75.95 0.0
05 17:15 S 11 16.09 Overcast SCT019 OVC025 24.6 20 76% 25 75.95 0.0
05 16:55 S 15 16.09 Mostly Cloudy BKN027 BKN034 25.2 19.4 70% 26 75.97 0.0
05 16:35 S 20 16.09 Mostly Cloudy SCT025 BKN036 26.4 19.6 66% 28 75.97 0.0
05 16:15 S 22 16.09 Partly Cloudy SCT025 SCT036 26.1 19.7 68% 27 75.97 0.0
05 15:55 S 20 16.09 Partly Cloudy SCT023 SCT070 26.6 20 67% 28 75.97 0.0
05 15:35 S 22 G 31 16.09 Partly Cloudy SCT023 26.7 19.8 66% 28 75.97 0.0
05 15:15 S 26 G 33 16.09 Partly Cloudy SCT025 SCT029 26.6 19.6 66% 28 76 0.0
05 14:55 S 19 G 30 16.09 Mostly Cloudy BKN025 27.1 19.5 63% 28 76 0.0
05 14:35 S 19 16.09 Overcast OVC025 26.7 19.6 65% 28 76.02 0.0
05 14:15 S 15 16.09 Overcast OVC023 26 19.5 67% 27 76.02 0.0
05 13:55 S 17 G 28 16.09 Overcast OVC023 26.4 19.7 67% 28 76.05 0.0
05 13:35 S 19 16.09 Overcast OVC023 26 19.5 67% 27 76.05 0.0
05 13:15 S 20 16.09 Overcast OVC023 26.5 19.6 66% 28 76.05 0.0
05 12:55 S 17 16.09 Mostly Cloudy BKN023 26.4 19.6 26.7 17.8 66% 28 76.05 0.0
05 12:35 S 20 G 26 16.09 Partly Cloudy SCT023 26.6 19.4 65% 28 76.07 0.0
05 11:55 S 19 G 26 16.09 Partly Cloudy SCT025 25.7 18.7 65% 27 76.07 0.0
05 11:35 SW 17 16.09 Mostly Cloudy BKN025 26.4 19.1 64% 28 76.07 0.0
05 11:15 S 19 G 28 16.09 Mostly Cloudy BKN025 26.3 18.8 63% 27 76.07 0.0
05 10:55 S 17 16.09 Partly Cloudy SCT025 25.6 18.3 64% 27 76.07 0.0
05 10:35 S 17 16.09 Partly Cloudy SCT025 25.3 18.1 64% 26 76.07 0.0
05 10:15 SW 17 G 28 16.09 Partly Cloudy SCT025 25.4 18.1 64% 26 76.07 0.0
05 09:55 S 22 16.09 Partly Cloudy SCT025 25.1 17.8 64% 26 76.05 0.0
05 09:35 S 22 G 28 16.09 Fair CLR 24.9 17.4 63% 26 76.07 0.0
05 09:15 S 22 16.09 Fair CLR 24.8 17 62% 26 76.07 0.0
05 08:55 S 20 16.09 Fair CLR 24.3 16.9 63% 25 76.05 0.0
05 08:35 S 19 16.09 Fair CLR 23.6 17.1 67% 76.05 0.0
05 08:15 S 13 16.09 Fair CLR 23.1 17.5 71% 76.02 0.0
05 07:35 S 6 16.09 Fair CLR 21.6 18.3 82% 76 0.0
05 07:15 S 6 16.09 Fair CLR 20.1 17.2 84% 76 0.0
05 06:55 S 6 16.09 NULL NULL 17.4 15.8 17.5 14.4 90% 76 0.0
05 06:35 S 6 16.09 NULL NULL 16.7 15 90% 76 0.0
05 06:15 Calm 16.09 NULL NULL 16.7 14.6 88% 75.97 0.0
05 05:55 SE 7 16.09 Partly Cloudy SCT031 16.4 14.9 91% 76 0.0
05 05:35 Calm 16.09 Mostly Cloudy BKN033 15.2 13.7 91% 76 0.0
05 05:15 Calm 16.09 Partly Cloudy SCT033 15.6 14.2 91% 76 0.0
05 04:55 Calm 16.09 Mostly Cloudy BKN033 15.5 13.9 90% 75.97 0.0
05 04:35 Calm 16.09 Fair CLR 14.6 13.2 91% 75.97 0.0
05 04:15 Calm 16.09 Fair CLR 14.6 13.2 91% 76 0.0
05 03:55 Calm 16.09 Fair CLR 14.6 13.1 91% 75.97 0.0
05 03:35 Calm 16.09 Fair CLR 15.3 13.6 90% 76 0.0
05 03:15 Calm 16.09 Fair CLR 16.1 13.6 85% 75.97 0.0
05 02:55 SE 6 16.09 Fair CLR 17.1 14.6 85% 75.97 0.0
05 02:35 SE 6 16.09 Fair CLR 17.2 14.8 86% 75.97 0.0
05 02:15 SE 6 16.09 Fair CLR 14.6 13 90% 76.02 0.0
05 01:55 SE 6 16.09 Fair CLR 14.6 13 90% 76.05 0.0
05 01:35 Calm 16.09 Fair CLR 15.1 13.4 90% 76.07 0.0
05 01:15 Calm 16.09 Fair CLR 15.1 13.3 89% 76.07 0.0
05 00:55 Calm 16.09 Fair CLR 15.3 13.3 21.8 14.5 88% 76.07 0.0
05 00:35 Calm 16.09 Fair CLR 15.1 13.3 89% 76.05 0.0
05 00:15 Calm 16.09 Fair CLR 14.5 12.7 89% 76.05 0.0
04 23:55 Calm 16.09 Fair CLR 16.3 13.5 84% 76.07 0.0
04 23:35 Calm 16.09 Fair CLR 14.7 12.7 88% 76.07 0.0
Date Time (cdt) Wind (kph) Vis. (km) Weather Sky Cond. Air Dwpt Max. Min. Relative Humidity Wind Chill (°C) Heat Index (°C) altimeter (cm) sea level (mb) 1 hr 3 hr 6 hr
6 hour
Temperature (ºC) Pressure Precipitation (cm)